Time;durP1;ratioP1;P1;durP2;ratioP2;P2;SDS_P1;SDS_P2;PMS_P1;PMS_P2;Temp;Humidity;BMP_temperature;BMP_pressure;BME280_temperature;BME280_humidity;BME280_pressure;Samples;Min_cycle;Max_cycle;Signal;HPM_P1;HPM_P2
2023/06/30 00:00:12;;;;;;;4.57;2.53;;;25.80;43.80;;;;;;2281979;56;20962;-69
2023/06/30 00:02:42;;;;;;;4.95;2.65;;;25.80;43.90;;;;;;2515404;55;20975;-69
2023/06/30 00:05:13;;;;;;;5.00;2.80;;;25.70;44.00;;;;;;2488044;55;21061;-68
2023/06/30 00:07:40;;;;;;;4.57;2.53;;;25.70;44.00;;;;;;2281474;55;21044;-69
2023/06/30 00:10:07;;;;;;;4.30;2.50;;;25.70;44.10;;;;;;2287032;56;21042;-68
2023/06/30 00:12:37;;;;;;;5.70;2.90;;;25.70;44.20;;;;;;2286668;55;21004;-69
2023/06/30 00:15:10;;;;;;;5.37;3.20;;;25.70;44.30;;;;;;2307673;55;21495;-69
2023/06/30 00:17:40;;;;;;;4.60;2.87;;;25.60;44.20;;;;;;2308255;55;20991;-69
2023/06/30 00:20:08;;;;;;;4.93;2.60;;;25.60;44.40;;;;;;2281279;55;21027;-68
2023/06/30 00:22:38;;;;;;;4.95;2.60;;;25.60;44.40;;;;;;2263922;56;20973;-69
2023/06/30 00:25:05;;;;;;;6.07;2.95;;;25.60;44.50;;;;;;2502228;55;20983;-68
2023/06/30 00:27:31;;;;;;;4.82;2.83;;;25.60;44.60;;;;;;2282666;56;20970;-69
2023/06/30 00:29:57;;;;;;;6.15;3.37;;;25.60;44.70;;;;;;2281924;56;21820;-68
2023/06/30 00:32:24;;;;;;;7.22;3.10;;;25.50;44.80;;;;;;2542236;54;20932;-69
2023/06/30 00:34:50;;;;;;;8.30;3.83;;;25.50;44.90;;;;;;2514795;55;20966;-69
2023/06/30 00:37:16;;;;;;;6.57;3.95;;;25.50;44.90;;;;;;2281827;56;20973;-70
2023/06/30 00:39:44;;;;;;;7.85;4.35;;;25.50;44.90;;;;;;2274988;56;20993;-69
2023/06/30 00:42:11;;;;;;;8.70;4.28;;;25.50;45.00;;;;;;2497536;55;21133;-69
2023/06/30 00:44:40;;;;;;;7.20;3.97;;;25.50;45.10;;;;;;2541985;54;21402;-69
2023/06/30 00:47:07;;;;;;;6.25;3.87;;;25.50;45.20;;;;;;2278233;55;20966;-69
2023/06/30 00:49:33;;;;;;;7.70;4.05;;;25.50;45.30;;;;;;2276049;55;21524;-69
2023/06/30 00:52:03;;;;;;;7.00;4.65;;;25.50;45.30;;;;;;2308287;55;20928;-69
2023/06/30 00:54:30;;;;;;;6.28;4.20;;;25.40;45.30;;;;;;2308854;55;20944;-69
2023/06/30 00:56:59;;;;;;;5.75;3.75;;;25.40;45.30;;;;;;2304809;55;21324;-69
2023/06/30 00:59:25;;;;;;;6.90;4.50;;;25.40;45.50;;;;;;2514490;55;21013;-69
2023/06/30 01:01:58;;;;;;;6.55;4.18;;;25.40;45.50;;;;;;2510993;55;20962;-69
2023/06/30 01:05:35;;;;;;;6.82;4.32;;;25.40;45.60;;;;;;2257177;55;21531;-69
2023/06/30 01:08:26;;;;;;;5.65;3.65;;;25.40;45.80;;;;;;2284072;55;21065;-69
2023/06/30 01:10:54;;;;;;;5.87;3.95;;;25.40;45.90;;;;;;2285168;55;20972;-68
2023/06/30 01:13:21;;;;;;;7.30;4.68;;;25.40;45.60;;;;;;2274533;55;20988;-69
2023/06/30 01:15:48;;;;;;;8.05;5.20;;;25.40;45.90;;;;;;2261746;55;20957;-69
2023/06/30 01:18:15;;;;;;;7.57;4.68;;;25.40;46.10;;;;;;2262124;55;20906;-69
2023/06/30 01:20:42;;;;;;;7.15;4.97;;;25.40;46.20;;;;;;2515559;54;20932;-69
2023/06/30 01:23:33;;;;;;;8.80;5.62;;;25.40;46.30;;;;;;2521347;54;21018;-69
2023/06/30 01:25:59;;;;;;;6.32;4.28;;;25.40;47.10;;;;;;2277860;55;21011;-69
2023/06/30 01:28:27;;;;;;;6.78;4.43;;;25.40;46.40;;;;;;2512373;54;21839;-69
2023/06/30 01:30:54;;;;;;;6.43;4.22;;;25.30;46.30;;;;;;2545828;54;21469;-69
2023/06/30 01:33:21;;;;;;;6.93;4.37;;;25.40;46.30;;;;;;2547663;54;21388;-69
2023/06/30 01:35:47;;;;;;;6.18;3.58;;;25.30;46.30;;;;;;2308716;55;20924;-69
2023/06/30 01:38:14;;;;;;;5.35;3.33;;;25.40;46.40;;;;;;2278186;55;21079;-68
2023/06/30 01:40:40;;;;;;;6.68;3.92;;;25.40;46.30;;;;;;2518862;54;20924;-68
2023/06/30 01:43:06;;;;;;;6.07;4.00;;;25.40;46.40;;;;;;2307958;55;21822;-69
2023/06/30 01:45:33;;;;;;;5.47;3.83;;;25.40;46.40;;;;;;2530308;54;21537;-68
2023/06/30 01:47:59;;;;;;;5.93;3.90;;;25.40;46.50;;;;;;2514692;55;20954;-69
2023/06/30 01:50:29;;;;;;;6.37;3.95;;;25.40;46.50;;;;;;2282634;56;20974;-68
2023/06/30 01:52:58;;;;;;;;;;;25.40;46.50;;;;;;2285553;56;21005;-68
2023/06/30 01:55:26;;;;;;;5.40;3.33;;;25.40;46.50;;;;;;2282453;56;20053;-68
2023/06/30 01:57:52;;;;;;;7.62;4.68;;;25.50;46.30;;;;;;2514628;55;20938;-68
2023/06/30 02:00:19;;;;;;;8.75;5.28;;;25.50;46.60;;;;;;2282419;56;21451;-68
2023/06/30 02:02:46;;;;;;;7.97;5.03;;;25.50;46.80;;;;;;2529174;54;21032;-69
2023/06/30 02:05:12;;;;;;;7.82;4.45;;;25.50;46.80;;;;;;2539632;54;20962;-69
2023/06/30 02:07:42;;;;;;;7.20;4.60;;;25.50;46.80;;;;;;2489230;55;21081;-69
2023/06/30 02:10:13;;;;;;;7.90;4.70;;;25.40;46.70;;;;;;2546947;54;21890;-69
2023/06/30 02:12:39;;;;;;;7.50;4.80;;;25.50;46.90;;;;;;2308316;55;21051;-69
2023/06/30 02:15:09;;;;;;;8.15;4.20;;;25.50;46.90;;;;;;2546947;54;21520;-69
2023/06/30 02:17:35;;;;;;;6.65;4.45;;;25.50;46.90;;;;;;2547852;54;21784;-69
2023/06/30 02:20:06;;;;;;;8.93;4.78;;;25.50;46.80;;;;;;2546258;54;21086;-68
2023/06/30 02:22:33;;;;;;;7.63;4.73;;;25.50;46.80;;;;;;2548168;54;20979;-69
2023/06/30 02:25:01;;;;;;;7.15;4.50;;;25.50;46.80;;;;;;2546395;54;20936;-69
2023/06/30 02:27:27;;;;;;;6.90;4.12;;;25.50;46.70;;;;;;2547357;54;20932;-70
2023/06/30 02:29:54;;;;;;;6.78;4.28;;;25.50;46.70;;;;;;2547005;54;21485;-70
2023/06/30 02:32:23;;;;;;;6.15;3.92;;;25.60;46.80;;;;;;2546827;54;20999;-70
2023/06/30 02:34:49;;;;;;;7.72;4.75;;;25.60;46.80;;;;;;2522942;54;20985;-70
2023/06/30 02:37:15;;;;;;;7.12;4.50;;;25.60;46.80;;;;;;2267781;55;21044;-69
2023/06/30 02:39:42;;;;;;;7.78;4.20;;;25.60;46.90;;;;;;2292605;55;20995;-70
2023/06/30 02:42:12;;;;;;;6.82;4.37;;;25.60;46.90;;;;;;2308236;55;20940;-69
2023/06/30 02:44:38;;;;;;;6.62;4.43;;;25.60;47.00;;;;;;2511683;54;21492;-69
2023/06/30 02:47:05;;;;;;;6.97;4.62;;;25.60;46.90;;;;;;2296466;55;21824;-69
2023/06/30 02:49:34;;;;;;;6.40;4.15;;;25.60;46.90;;;;;;2298481;55;20959;-69
2023/06/30 02:52:01;;;;;;;6.80;4.50;;;25.60;46.90;;;;;;2309099;55;20940;-69
2023/06/30 02:54:33;;;;;;;7.43;4.22;;;25.60;46.90;;;;;;2547652;54;20972;-69
2023/06/30 02:57:01;;;;;;;8.25;4.93;;;25.60;47.00;;;;;;2546451;54;21000;-70
2023/06/30 02:59:28;;;;;;;7.82;4.85;;;25.60;47.00;;;;;;2308421;55;20952;-70
2023/06/30 03:01:55;;;;;;;7.28;5.07;;;25.60;47.00;;;;;;2547603;54;21529;-69
2023/06/30 03:04:21;;;;;;;7.47;4.87;;;25.60;47.10;;;;;;2547926;54;20984;-70
2023/06/30 03:06:51;;;;;;;8.18;4.62;;;25.60;47.10;;;;;;2308546;55;21461;-70
2023/06/30 03:09:17;;;;;;;7.47;4.80;;;25.60;47.00;;;;;;2511658;54;20959;-69
2023/06/30 03:11:44;;;;;;;8.02;4.87;;;25.60;47.00;;;;;;2512056;54;20916;-70
2023/06/30 03:14:11;;;;;;;7.20;4.82;;;25.60;47.60;;;;;;2308296;55;21011;-71
2023/06/30 03:16:38;;;;;;;7.80;4.37;;;25.60;47.10;;;;;;2300818;55;20953;-69
2023/06/30 03:19:04;;;;;;;7.53;4.90;;;25.60;47.20;;;;;;2546600;54;21350;-69
2023/06/30 03:21:31;;;;;;;6.78;4.57;;;25.60;47.20;;;;;;2547727;54;21027;-70
2023/06/30 03:24:00;;;;;;;8.25;4.53;;;25.60;47.20;;;;;;2535865;54;21004;-70
2023/06/30 03:26:29;;;;;;;7.95;4.78;;;25.60;47.20;;;;;;2289827;55;21576;-69
2023/06/30 03:28:56;;;;;;;6.72;4.50;;;25.50;47.20;;;;;;2280289;56;20945;-69
2023/06/30 03:31:23;;;;;;;8.45;4.32;;;25.50;47.20;;;;;;2308262;55;20939;-69
2023/06/30 03:33:50;;;;;;;7.53;4.62;;;25.50;47.20;;;;;;2546867;54;21856;-69
2023/06/30 03:36:16;;;;;;;9.15;5.57;;;25.50;47.30;;;;;;2547669;54;21454;-69
2023/06/30 03:38:42;;;;;;;8.85;6.30;;;25.50;47.50;;;;;;2299733;55;21006;-69
2023/06/30 03:41:09;;;;;;;9.50;5.93;;;25.50;47.60;;;;;;2502312;54;21007;-69
2023/06/30 03:43:47;;;;;;;10.35;6.70;;;25.40;47.50;;;;;;2308961;55;21870;-69
2023/06/30 03:46:15;;;;;;;9.20;5.70;;;25.40;47.80;;;;;;2308684;55;20928;-69
2023/06/30 03:48:42;;;;;;;8.70;5.50;;;25.40;47.70;;;;;;2292472;55;21046;-70
2023/06/30 03:51:09;;;;;;;9.30;5.65;;;25.40;47.70;;;;;;2298276;55;21023;-70
2023/06/30 03:53:35;;;;;;;9.63;5.43;;;25.30;47.80;;;;;;2309133;55;21794;-70
2023/06/30 03:56:02;;;;;;;7.68;4.78;;;25.30;47.90;;;;;;2524612;54;20930;-69
2023/06/30 03:58:28;;;;;;;8.80;5.00;;;25.30;47.90;;;;;;2296732;55;21934;-70
2023/06/30 04:00:55;;;;;;;6.43;4.12;;;25.30;47.90;;;;;;2281448;56;21521;-70
2023/06/30 04:03:21;;;;;;;6.70;4.25;;;25.30;48.00;;;;;;2538827;54;21752;-69
2023/06/30 04:05:49;;;;;;;9.27;5.68;;;25.30;48.00;;;;;;2285835;55;21003;-70
2023/06/30 04:08:15;;;;;;;7.00;4.50;;;25.30;48.10;;;;;;2546802;54;20929;-69
2023/06/30 04:10:43;;;;;;;7.10;4.20;;;25.30;48.10;;;;;;2547076;54;20968;-70
2023/06/30 04:13:12;;;;;;;7.18;4.40;;;25.20;48.10;;;;;;2546859;54;20924;-70
2023/06/30 04:15:39;;;;;;;8.05;4.30;;;25.20;48.10;;;;;;2307782;55;20944;-70
2023/06/30 04:18:05;;;;;;;7.32;4.65;;;25.20;48.20;;;;;;2546820;54;20956;-70
2023/06/30 04:20:32;;;;;;;6.93;4.45;;;25.20;48.30;;;;;;2308695;55;20987;-70
2023/06/30 04:23:03;;;;;;;7.25;4.50;;;25.20;48.40;;;;;;2546429;54;21759;-70
2023/06/30 04:25:29;;;;;;;7.60;4.60;;;25.20;48.40;;;;;;2546530;54;20982;-69
2023/06/30 04:27:57;;;;;;;7.10;4.70;;;25.20;49.00;;;;;;2308396;55;20919;-69
2023/06/30 04:30:23;;;;;;;7.53;4.97;;;25.20;48.50;;;;;;2308099;55;21011;-69
2023/06/30 04:32:49;;;;;;;7.45;4.87;;;25.30;48.60;;;;;;2546785;54;21471;-68
2023/06/30 04:35:16;;;;;;;7.55;5.30;;;25.20;48.50;;;;;;2546705;54;20983;-70
2023/06/30 04:37:42;;;;;;;10.13;6.18;;;25.20;48.60;;;;;;2523077;54;21436;-69
2023/06/30 04:40:09;;;;;;;8.27;5.47;;;25.30;48.60;;;;;;2297899;55;20960;-69
2023/06/30 04:42:36;;;;;;;10.45;5.25;;;25.30;48.60;;;;;;2547588;54;20983;-69
2023/06/30 04:45:04;;;;;;;7.35;4.57;;;25.30;48.70;;;;;;2547253;54;20976;-68
2023/06/30 04:47:32;;;;;;;8.85;4.82;;;25.30;48.70;;;;;;2547048;54;20975;-69
2023/06/30 04:49:59;;;;;;;7.30;5.40;;;25.30;48.70;;;;;;2546588;54;21052;-69
2023/06/30 04:52:28;;;;;;;7.10;4.62;;;25.30;48.70;;;;;;2308553;55;20940;-69
2023/06/30 04:54:56;;;;;;;7.30;4.95;;;25.30;48.90;;;;;;2308581;55;20940;-69
2023/06/30 04:57:22;;;;;;;7.20;4.75;;;25.30;49.00;;;;;;2547428;54;20972;-70
2023/06/30 04:59:52;;;;;;;7.32;5.00;;;25.30;49.00;;;;;;2547424;54;20988;-69
2023/06/30 05:02:18;;;;;;;9.63;6.05;;;25.30;49.00;;;;;;2308880;55;20950;-69
2023/06/30 05:04:45;;;;;;;9.88;6.35;;;25.30;49.20;;;;;;2547205;54;21063;-69
2023/06/30 05:07:11;;;;;;;8.32;5.32;;;25.30;49.40;;;;;;2546082;54;21003;-69
2023/06/30 05:09:37;;;;;;;8.45;5.53;;;25.30;49.60;;;;;;2547269;54;20995;-69
2023/06/30 05:12:04;;;;;;;7.40;5.00;;;25.30;49.70;;;;;;2546387;54;20936;-69
2023/06/30 05:14:33;;;;;;;8.82;5.28;;;25.30;49.80;;;;;;2536625;54;20965;-69
2023/06/30 05:17:01;;;;;;;9.77;5.40;;;25.30;50.00;;;;;;2266180;55;20992;-69
2023/06/30 05:19:28;;;;;;;9.35;5.95;;;25.20;49.90;;;;;;2308521;55;20939;-69
2023/06/30 05:21:54;;;;;;;7.95;5.05;;;25.20;50.00;;;;;;2308130;55;20916;-68
2023/06/30 05:24:21;;;;;;;9.98;5.82;;;25.20;50.00;;;;;;2547587;54;21012;-69
2023/06/30 05:26:48;;;;;;;8.70;5.50;;;25.20;50.30;;;;;;2547692;54;20928;-69
2023/06/30 05:29:17;;;;;;;7.72;4.90;;;25.10;50.40;;;;;;2308386;55;20958;-70
2023/06/30 05:31:44;;;;;;;10.80;6.05;;;25.20;50.70;;;;;;2547092;54;21626;-70
2023/06/30 05:34:15;;;;;;;10.38;6.62;;;25.20;50.80;;;;;;2308512;55;20932;-70
2023/06/30 05:36:44;;;;;;;7.53;4.75;;;25.10;50.90;;;;;;2547137;54;21108;-70
2023/06/30 05:39:12;;;;;;;10.00;6.47;;;25.10;51.10;;;;;;2547236;54;20928;-70
2023/06/30 05:41:38;;;;;;;9.10;5.87;;;25.10;51.10;;;;;;2308914;55;20936;-69
2023/06/30 05:44:09;;;;;;;10.77;5.75;;;25.10;51.30;;;;;;2547795;54;20943;-69
2023/06/30 05:46:38;;;;;;;9.45;6.10;;;25.10;51.40;;;;;;2309103;55;21020;-69
2023/06/30 05:49:06;;;;;;;11.32;6.32;;;25.00;51.50;;;;;;2547187;54;20948;-69
2023/06/30 05:51:36;;;;;;;9.07;6.03;;;25.00;51.70;;;;;;2309042;55;20943;-69
2023/06/30 05:54:02;;;;;;;10.40;6.28;;;25.00;51.80;;;;;;2309067;55;21067;-69
2023/06/30 05:56:29;;;;;;;8.75;5.57;;;25.00;51.90;;;;;;2309186;55;20979;-68
2023/06/30 05:58:58;;;;;;;9.43;5.53;;;25.00;52.00;;;;;;2308595;55;21002;-68
2023/06/30 06:01:24;;;;;;;8.85;5.68;;;25.00;52.20;;;;;;2309024;55;21020;-69
2023/06/30 06:03:51;;;;;;;9.80;5.90;;;24.90;52.10;;;;;;2547647;54;20928;-69
2023/06/30 06:06:18;;;;;;;10.02;6.50;;;24.90;52.30;;;;;;2547204;54;20943;-69
2023/06/30 06:08:47;;;;;;;9.68;6.07;;;24.90;52.50;;;;;;2546975;54;20972;-68
2023/06/30 06:11:13;;;;;;;9.55;6.25;;;24.80;52.50;;;;;;2307679;55;20924;-69
2023/06/30 06:13:40;;;;;;;8.07;4.90;;;24.80;52.80;;;;;;2547991;54;20983;-69
2023/06/30 06:16:06;;;;;;;7.90;5.00;;;24.80;53.00;;;;;;2309139;55;20947;-69
2023/06/30 06:18:33;;;;;;;9.95;5.95;;;24.70;53.10;;;;;;2308799;55;20944;-69
2023/06/30 06:21:02;;;;;;;8.55;5.45;;;24.60;53.30;;;;;;2547675;54;20997;-68
2023/06/30 06:23:28;;;;;;;11.55;5.68;;;24.60;53.60;;;;;;2547420;54;21677;-67
2023/06/30 06:25:55;;;;;;;9.25;5.68;;;24.60;53.80;;;;;;2308028;55;21527;-68
2023/06/30 06:28:21;;;;;;;10.05;5.82;;;24.60;54.00;;;;;;2308469;55;20948;-65
2023/06/30 06:30:48;;;;;;;8.52;5.40;;;24.50;54.20;;;;;;2308618;55;20924;-67
2023/06/30 06:33:15;;;;;;;8.52;5.03;;;24.40;54.30;;;;;;2308097;55;21034;-66
2023/06/30 06:35:41;;;;;;;8.27;5.10;;;24.40;54.50;;;;;;2547239;54;20955;-66
2023/06/30 06:38:09;;;;;;;7.28;4.37;;;24.30;54.60;;;;;;2535760;54;21005;-66
2023/06/30 06:40:38;;;;;;;7.72;5.22;;;24.30;54.90;;;;;;2497009;54;20956;-68
2023/06/30 06:43:07;;;;;;;7.45;4.50;;;24.20;55.10;;;;;;2546577;54;20944;-66
2023/06/30 06:45:34;;;;;;;8.27;4.90;;;24.10;55.20;;;;;;2307949;55;21011;-66
2023/06/30 06:48:26;;;;;;;7.95;5.12;;;24.00;55.30;;;;;;2543886;54;20993;-66
2023/06/30 06:51:00;;;;;;;7.65;4.90;;;24.00;56.00;;;;;;2545457;54;20939;-67
2023/06/30 06:53:28;;;;;;;8.07;5.30;;;23.90;55.80;;;;;;2309310;55;20984;-66
2023/06/30 06:55:55;;;;;;;7.20;4.18;;;23.90;55.90;;;;;;2547347;54;22090;-68
2023/06/30 06:58:22;;;;;;;9.38;4.72;;;23.80;55.90;;;;;;2546342;54;20979;-68
2023/06/30 07:00:50;;;;;;;8.20;5.22;;;23.80;56.10;;;;;;2547418;54;21750;-67
2023/06/30 07:03:17;;;;;;;7.28;4.47;;;23.70;56.40;;;;;;2308987;55;20939;-67
2023/06/30 07:05:44;;;;;;;7.95;4.43;;;23.60;56.30;;;;;;2308943;55;21994;-68
2023/06/30 07:08:15;;;;;;;7.95;4.57;;;23.70;56.60;;;;;;2546800;54;20933;-67
2023/06/30 07:10:42;;;;;;;6.50;3.85;;;23.60;56.70;;;;;;2546989;54;21023;-68
2023/06/30 07:13:08;;;;;;;6.65;3.37;;;23.50;56.80;;;;;;2308217;55;21832;-67
2023/06/30 07:15:37;;;;;;;5.47;3.28;;;23.50;56.90;;;;;;2308574;55;21075;-68
2023/06/30 07:18:04;;;;;;;6.85;3.50;;;23.50;57.10;;;;;;2303442;55;21521;-68
2023/06/30 07:20:30;;;;;;;6.40;3.92;;;23.50;57.20;;;;;;2285649;55;21525;-68
2023/06/30 07:22:57;;;;;;;7.00;4.07;;;23.40;57.40;;;;;;2305455;55;21316;-68
2023/06/30 07:25:24;;;;;;;9.15;4.32;;;23.40;57.50;;;;;;2518015;54;20998;-68
2023/06/30 07:27:54;;;;;;;6.80;4.00;;;23.40;57.70;;;;;;2541773;54;20999;-68
2023/06/30 07:30:21;;;;;;;6.05;3.35;;;23.40;57.80;;;;;;2517130;54;21003;-67
2023/06/30 07:32:48;;;;;;;6.43;3.95;;;23.40;57.80;;;;;;2307816;55;21040;-66
2023/06/30 07:35:17;;;;;;;6.43;3.70;;;23.30;57.90;;;;;;2308320;55;20979;-68
2023/06/30 07:37:44;;;;;;;6.82;3.92;;;23.30;58.10;;;;;;2309707;55;20979;-67
2023/06/30 07:40:11;;;;;;;6.10;3.67;;;23.30;58.30;;;;;;2280866;55;21051;-67
2023/06/30 07:42:41;;;;;;;6.62;3.50;;;23.30;58.40;;;;;;2546510;54;20976;-68
2023/06/30 07:45:16;;;;;;;6.25;3.28;;;23.20;58.40;;;;;;2268219;56;21017;-67
2023/06/30 07:47:44;;;;;;;5.97;3.17;;;23.30;59.00;;;;;;2512335;54;21005;-67
2023/06/30 07:50:12;;;;;;;6.97;3.40;;;23.30;58.70;;;;;;2541399;54;20959;-67
2023/06/30 07:52:42;;;;;;;5.10;2.83;;;23.30;59.00;;;;;;2547604;54;20991;-67
2023/06/30 07:55:10;;;;;;;5.28;2.70;;;23.30;59.80;;;;;;2546998;54;21027;-68
2023/06/30 07:57:37;;;;;;;5.78;2.78;;;23.30;59.10;;;;;;2546303;54;20955;-69
2023/06/30 08:00:06;;;;;;;6.03;2.80;;;23.30;59.20;;;;;;2308983;55;21039;-67
2023/06/30 08:02:32;;;;;;;5.00;2.53;;;23.30;59.20;;;;;;2308860;55;20935;-68
2023/06/30 08:04:59;;;;;;;5.45;3.10;;;23.30;59.30;;;;;;2308746;55;20971;-67
2023/06/30 08:07:26;;;;;;;6.45;2.92;;;23.30;59.50;;;;;;2291264;55;21112;-68
2023/06/30 08:09:52;;;;;;;4.93;2.78;;;23.30;59.60;;;;;;2531566;54;21484;-68
2023/06/30 08:12:19;;;;;;;5.40;2.70;;;23.30;59.70;;;;;;2515972;54;21765;-68
2023/06/30 08:14:48;;;;;;;5.47;3.05;;;23.30;59.80;;;;;;2308732;55;21106;-68
2023/06/30 08:17:20;;;;;;;6.18;3.70;;;23.30;59.90;;;;;;2547317;54;20932;-69
2023/06/30 08:19:46;;;;;;;6.57;3.78;;;23.40;60.40;;;;;;2309532;55;20940;-69
2023/06/30 08:22:15;;;;;;;5.40;3.17;;;23.40;60.20;;;;;;2308800;55;20956;-69
2023/06/30 08:24:45;;;;;;;6.00;3.33;;;23.40;60.30;;;;;;2308548;55;20975;-69
2023/06/30 08:27:12;;;;;;;5.65;2.95;;;23.40;60.60;;;;;;2308269;55;21405;-69
2023/06/30 08:29:39;;;;;;;7.57;4.12;;;23.40;60.50;;;;;;2548114;54;20996;-68
2023/06/30 08:32:07;;;;;;;6.87;4.00;;;23.50;60.90;;;;;;2548201;54;21027;-68
2023/06/30 08:34:36;;;;;;;6.25;3.65;;;23.50;60.90;;;;;;2547936;54;21015;-71
2023/06/30 08:37:03;;;;;;;8.07;4.43;;;23.50;60.90;;;;;;2279921;55;1637090;-69
2023/06/30 08:39:31;;;;;;;6.32;3.58;;;23.50;61.00;;;;;;2285443;55;20947;-69
2023/06/30 08:42:00;;;;;;;6.93;3.65;;;23.50;61.00;;;;;;2308869;55;21094;-69
2023/06/30 08:44:27;;;;;;;6.53;3.45;;;23.50;61.20;;;;;;2307634;55;20998;-69
2023/06/30 08:46:56;;;;;;;6.37;3.40;;;23.50;61.10;;;;;;2283291;55;20996;-69
2023/06/30 08:49:24;;;;;;;6.80;4.15;;;23.60;61.20;;;;;;2308748;55;21038;-70
2023/06/30 08:51:55;;;;;;;6.78;3.97;;;23.60;61.30;;;;;;2547336;54;21813;-71
2023/06/30 08:54:22;;;;;;;7.10;4.35;;;23.60;61.40;;;;;;2548053;54;20968;-70
2023/06/30 08:56:49;;;;;;;7.43;4.80;;;23.60;61.20;;;;;;2547363;54;21961;-70
2023/06/30 08:59:16;;;;;;;9.27;5.25;;;23.70;61.30;;;;;;2280522;56;21006;-70
2023/06/30 09:01:44;;;;;;;8.95;5.28;;;23.70;61.40;;;;;;2537947;54;20993;-71
2023/06/30 09:04:11;;;;;;;8.82;5.45;;;23.70;61.60;;;;;;2520748;54;21027;-70
2023/06/30 09:06:40;;;;;;;9.02;5.43;;;23.70;61.60;;;;;;2546947;54;20939;-70
2023/06/30 09:09:09;;;;;;;7.72;5.37;;;23.80;61.80;;;;;;2284463;55;21913;-69
2023/06/30 09:11:36;;;;;;;9.35;5.30;;;23.80;62.10;;;;;;2291415;55;21108;-69
2023/06/30 09:14:03;;;;;;;7.62;4.72;;;23.80;62.20;;;;;;2538003;54;20939;-70
2023/06/30 09:16:31;;;;;;;7.72;4.78;;;23.90;62.60;;;;;;2310060;55;20936;-70
2023/06/30 09:18:58;;;;;;;8.60;5.15;;;23.90;62.80;;;;;;2307265;55;20964;-71
2023/06/30 09:21:24;;;;;;;7.62;4.78;;;23.90;62.80;;;;;;2307817;55;20963;-72
2023/06/30 09:23:51;;;;;;;7.87;5.05;;;24.00;62.80;;;;;;2281748;56;21043;-72
2023/06/30 09:26:18;;;;;;;9.73;5.47;;;24.10;62.90;;;;;;2546522;54;20941;-72
2023/06/30 09:28:45;;;;;;;8.55;5.65;;;24.10;62.90;;;;;;2547406;54;20970;-73
2023/06/30 09:31:11;;;;;;;9.35;5.82;;;24.10;62.80;;;;;;2307552;55;21015;-72
2023/06/30 09:33:39;;;;;;;8.82;6.20;;;24.20;62.70;;;;;;2546655;54;20963;-70
2023/06/30 09:36:06;;;;;;;9.50;6.50;;;24.30;62.60;;;;;;2546366;54;21960;-71
2023/06/30 09:38:34;;;;;;;10.30;6.45;;;24.20;62.50;;;;;;2545819;54;21009;-73
2023/06/30 09:41:07;;;;;;;9.95;6.43;;;24.30;62.50;;;;;;2307491;55;21563;-73
2023/06/30 09:43:36;;;;;;;8.88;6.07;;;24.40;62.70;;;;;;2282418;56;20951;-72
2023/06/30 09:46:04;;;;;;;11.43;7.15;;;24.40;62.40;;;;;;2282505;56;20958;-70
2023/06/30 09:48:40;;;;;;;10.63;7.70;;;24.40;62.40;;;;;;2545828;54;22106;-72
2023/06/30 09:51:07;;;;;;;10.82;7.18;;;24.40;62.60;;;;;;2314046;55;20971;-70
2023/06/30 09:53:45;;;;;;;11.75;7.35;;;24.40;62.30;;;;;;2540829;54;20953;-71
2023/06/30 09:56:21;;;;;;;10.48;6.72;;;24.40;62.70;;;;;;2273775;55;20953;-70
2023/06/30 09:58:49;;;;;;;10.57;6.82;;;24.40;62.60;;;;;;2296686;55;21623;-70
2023/06/30 10:01:23;;;;;;;10.50;7.03;;;24.40;62.40;;;;;;2523205;54;20979;-72
2023/06/30 10:03:55;;;;;;;10.70;7.05;;;24.40;62.60;;;;;;2295384;55;21074;-71
2023/06/30 10:06:21;;;;;;;9.48;6.28;;;24.40;62.50;;;;;;2281038;56;20990;-71
2023/06/30 10:08:49;;;;;;;9.68;6.45;;;24.40;62.40;;;;;;2528873;54;21023;-71
2023/06/30 10:11:16;;;;;;;11.52;7.05;;;24.40;62.40;;;;;;2544926;54;20965;-69
2023/06/30 10:13:44;;;;;;;10.57;6.75;;;24.40;62.40;;;;;;2266347;56;20967;-70
2023/06/30 10:16:13;;;;;;;10.60;6.65;;;24.40;62.50;;;;;;2264025;56;21046;-70
2023/06/30 10:18:43;;;;;;;12.15;7.07;;;24.40;62.50;;;;;;2274782;55;21034;-70
2023/06/30 10:21:09;;;;;;;10.18;6.60;;;24.40;62.70;;;;;;2506813;55;21781;-70
2023/06/30 10:23:36;;;;;;;10.13;6.80;;;24.40;62.70;;;;;;2514298;55;21555;-71
2023/06/30 10:26:05;;;;;;;11.23;6.97;;;24.40;62.70;;;;;;2282442;56;21005;-69
2023/06/30 10:28:36;;;;;;;12.73;7.32;;;24.40;62.60;;;;;;2501011;55;20970;-69
2023/06/30 10:31:04;;;;;;;11.18;6.95;;;24.40;62.60;;;;;;2491704;54;21062;-69
2023/06/30 10:33:30;;;;;;;11.27;7.47;;;24.40;62.60;;;;;;2515938;54;21078;-69
2023/06/30 10:35:57;;;;;;;11.02;6.82;;;24.40;62.60;;;;;;2303310;55;20991;-69
2023/06/30 10:38:26;;;;;;;10.63;7.15;;;24.40;62.70;;;;;;2313222;55;21757;-69
2023/06/30 10:41:11;;;;;;;12.98;8.27;;;24.40;62.70;;;;;;2552818;54;21494;-70
2023/06/30 10:44:05;;;;;;;13.00;7.53;;;24.40;63.00;;;;;;2551441;54;20967;-69
2023/06/30 10:46:52;;;;;;;12.80;7.97;;;24.30;62.90;;;;;;2553466;54;20944;-69
2023/06/30 10:49:41;;;;;;;12.77;8.05;;;24.30;62.80;;;;;;2553763;54;20936;-70
2023/06/30 10:52:11;;;;;;;10.60;7.22;;;24.30;62.90;;;;;;2314007;55;21223;-67
2023/06/30 10:54:52;;;;;;;11.23;7.12;;;24.30;62.60;;;;;;2314003;55;21416;-70
2023/06/30 10:57:23;;;;;;;12.60;8.00;;;24.30;62.80;;;;;;2313701;55;21015;-72
2023/06/30 11:00:11;;;;;;;11.55;7.43;;;24.30;62.80;;;;;;2553624;54;20947;-71
2023/06/30 11:03:15;;;;;;;11.27;7.25;;;24.30;63.10;;;;;;2515750;55;21710;-70
2023/06/30 11:05:43;;;;;;;11.65;7.93;;;24.30;63.40;;;;;;2522303;54;20991;-70
2023/06/30 11:08:21;;;;;;;12.70;8.40;;;24.30;63.10;;;;;;2281979;56;20967;-70
2023/06/30 11:10:50;;;;;;;12.88;8.32;;;24.30;63.30;;;;;;2515868;54;21010;-70
2023/06/30 11:13:30;;;;;;;13.80;8.77;;;24.30;63.10;;;;;;2546440;54;21024;-70
2023/06/30 11:15:56;;;;;;;14.65;8.82;;;24.40;63.30;;;;;;2307911;55;20936;-70
2023/06/30 11:18:23;;;;;;;11.57;7.97;;;24.40;63.20;;;;;;2512619;54;21078;-70
2023/06/30 11:21:05;;;;;;;12.13;7.43;;;24.40;63.30;;;;;;2516012;55;21013;-70
2023/06/30 11:23:37;;;;;;;12.65;8.23;;;24.40;63.60;;;;;;2486064;55;21006;-69
2023/06/30 11:26:17;;;;;;;13.18;8.07;;;24.40;63.60;;;;;;2282284;56;20978;-70
2023/06/30 11:28:44;;;;;;;12.30;8.65;;;24.50;63.90;;;;;;2514379;55;20943;-71
2023/06/30 11:31:11;;;;;;;13.82;9.75;;;24.40;63.50;;;;;;2278630;55;21026;-70
2023/06/30 11:33:41;;;;;;;12.80;8.93;;;24.50;63.60;;;;;;2491957;55;20952;-70
2023/06/30 11:36:17;;;;;;;14.52;9.43;;;24.60;63.80;;;;;;2260590;56;21015;-70
2023/06/30 11:38:45;;;;;;;12.82;8.85;;;24.60;63.90;;;;;;2302430;55;21623;-71
2023/06/30 11:41:16;;;;;;;12.77;8.73;;;24.60;63.70;;;;;;2514207;55;20994;-72
2023/06/30 11:43:55;;;;;;;13.10;8.40;;;24.60;63.60;;;;;;2516015;55;20986;-70
2023/06/30 11:46:25;;;;;;;11.75;7.75;;;24.70;63.70;;;;;;2514653;55;21015;-70
2023/06/30 11:48:52;;;;;;;12.57;8.27;;;24.70;63.70;;;;;;2281460;56;20975;-70
2023/06/30 11:51:18;;;;;;;12.98;8.18;;;24.70;63.60;;;;;;2520525;54;21039;-69
2023/06/30 11:53:51;;;;;;;12.57;8.23;;;24.70;63.60;;;;;;2305783;55;21044;-69
2023/06/30 11:56:18;;;;;;;12.23;8.25;;;24.80;63.60;;;;;;2258988;56;21026;-71
2023/06/30 11:58:51;;;;;;;12.48;8.43;;;24.80;63.40;;;;;;2527161;54;21938;-71
2023/06/30 12:01:19;;;;;;;12.52;8.85;;;24.80;63.30;;;;;;2547576;54;20944;-70
2023/06/30 12:03:46;;;;;;;13.60;8.88;;;24.80;63.20;;;;;;2534934;54;21389;-70
2023/06/30 12:06:18;;;;;;;12.35;8.38;;;24.80;63.00;;;;;;2281920;56;21033;-71
2023/06/30 12:08:57;;;;;;;12.00;8.48;;;24.80;63.10;;;;;;2288938;55;21014;-71
2023/06/30 12:11:45;;;;;;;13.45;8.82;;;24.80;63.20;;;;;;2265337;56;21102;-71
2023/06/30 12:14:22;;;;;;;14.13;9.45;;;24.80;63.20;;;;;;2308216;55;20955;-70
2023/06/30 12:16:49;;;;;;;12.40;8.48;;;24.80;63.30;;;;;;2283080;55;20946;-70
2023/06/30 12:19:16;;;;;;;13.95;9.40;;;24.80;63.20;;;;;;2515749;55;20966;-71
2023/06/30 12:21:55;;;;;;;14.45;9.48;;;24.70;63.20;;;;;;2508687;54;20978;-70
2023/06/30 12:24:24;;;;;;;14.00;9.52;;;24.80;63.50;;;;;;2309489;55;21433;-71
2023/06/30 12:26:53;;;;;;;11.73;7.97;;;24.80;63.40;;;;;;2541293;54;20988;-71
2023/06/30 12:29:20;;;;;;;13.62;8.93;;;24.70;63.30;;;;;;2296196;55;21017;-70
2023/06/30 12:31:47;;;;;;;14.40;9.68;;;24.70;63.40;;;;;;2285563;55;20952;-70
2023/06/30 12:34:35;;;;;;;13.35;9.52;;;24.70;63.40;;;;;;2510888;54;21079;-71
2023/06/30 12:37:01;;;;;;;15.85;9.57;;;24.70;63.60;;;;;;2285788;55;21133;-71
2023/06/30 12:39:31;;;;;;;13.85;9.43;;;24.60;63.30;;;;;;2541825;54;21059;-71
2023/06/30 12:41:57;;;;;;;15.80;10.80;;;24.60;63.40;;;;;;2315678;55;21591;-70
2023/06/30 12:44:23;;;;;;;16.30;10.90;;;24.60;63.40;;;;;;2506463;54;21100;-70
2023/06/30 12:47:02;;;;;;;15.88;10.98;;;24.60;63.30;;;;;;2301738;55;20940;-67
2023/06/30 12:49:29;;;;;;;16.00;10.35;;;24.60;63.40;;;;;;2539049;54;21505;-72
2023/06/30 12:51:58;;;;;;;15.38;10.32;;;24.50;63.20;;;;;;2308406;55;20972;-70